Time;durP1;ratioP1;P1;durP2;ratioP2;P2;SDS_P1;SDS_P2;PMS_P1;PMS_P2;Temp;Humidity;BMP_temperature;BMP_pressure;BME280_temperature;BME280_humidity;BME280_pressure;Samples;Min_cycle;Max_cycle;Signal;HPM_P1;HPM_P2
2021/06/27 00:01:20;;;;;;;10.33;9.33;;;;;;;16.34;68.15;101998.75;5055719;28;20186;-80
2021/06/27 00:03:46;;;;;;;9.97;8.97;;;;;;;16.32;68.23;102003.03;5055438;28;20177;-80
2021/06/27 00:06:12;;;;;;;10.73;9.60;;;;;;;16.30;68.48;102004.72;5055457;28;20569;-79
2021/06/27 00:08:38;;;;;;;8.93;8.03;;;;;;;16.26;68.13;101999.50;5055737;28;20265;-79
2021/06/27 00:11:05;;;;;;;10.83;9.73;;;;;;;16.34;68.09;101997.91;5055483;28;20209;-78
2021/06/27 00:13:31;;;;;;;10.63;9.57;;;;;;;16.28;68.42;101996.06;5055859;28;20186;-79
2021/06/27 00:15:58;;;;;;;9.50;8.60;;;;;;;16.28;68.40;101996.06;5054413;28;20212;-78
2021/06/27 00:18:25;;;;;;;8.80;7.60;;;;;;;16.24;68.33;101998.56;5056043;28;20181;-80
2021/06/27 00:20:55;;;;;;;9.90;8.87;;;;;;;16.15;68.48;101994.16;5055456;28;20636;-79
2021/06/27 00:23:24;;;;;;;9.17;8.10;;;;;;;16.10;68.38;101997.50;5053933;28;20578;-79
2021/06/27 00:25:50;;;;;;;8.80;7.73;;;;;;;16.08;67.94;101996.63;5054293;28;20182;-78
2021/06/27 00:28:16;;;;;;;8.80;7.80;;;;;;;16.03;68.05;102004.28;5056140;28;20197;-79
2021/06/27 00:30:43;;;;;;;8.30;7.47;;;;;;;15.95;69.00;102005.03;5055729;28;20204;-79
2021/06/27 00:33:09;;;;;;;9.53;8.50;;;;;;;15.92;68.66;102010.13;5054050;28;20205;-79
2021/06/27 00:35:35;;;;;;;15.40;12.50;;;;;;;15.85;68.57;102009.19;5054604;28;20201;-79
2021/06/27 00:38:00;;;;;;;9.37;8.40;;;;;;;15.82;69.36;102006.53;5055595;28;20677;-80
2021/06/27 00:40:27;;;;;;;13.50;12.10;;;;;;;15.77;69.21;102007.28;5053674;28;20202;-81
2021/06/27 00:42:54;;;;;;;11.07;9.57;;;;;;;15.72;68.72;102004.66;5053355;28;20178;-79
2021/06/27 00:45:21;;;;;;;12.10;10.87;;;;;;;15.73;68.75;102003.78;5053885;28;20197;-78
2021/06/27 00:47:48;;;;;;;12.57;10.13;;;;;;;15.69;69.03;102003.69;5053946;28;20178;-78
2021/06/27 00:50:23;;;;;;;8.13;7.33;;;;;;;15.71;69.32;102002.88;5053067;28;20700;-80
2021/06/27 00:52:48;;;;;;;9.33;8.33;;;;;;;15.68;68.78;101996.81;5055278;28;20184;-80
2021/06/27 00:55:15;;;;;;;10.60;9.50;;;;;;;15.63;68.78;101998.44;5054547;28;20174;-78
2021/06/27 00:57:43;;;;;;;9.50;8.50;;;;;;;15.57;69.17;102001.78;5054614;28;20212;-81
2021/06/27 01:00:12;;;;;;;9.73;8.53;;;;;;;15.46;70.25;101995.56;5053494;28;20198;-79
2021/06/27 01:02:37;;;;;;;9.87;8.87;;;;;;;15.42;70.04;102004.09;5055467;28;20197;-79
2021/06/27 01:05:13;;;;;;;11.93;10.57;;;;;;;15.44;69.50;101999.84;5054337;28;20178;-79
2021/06/27 01:07:38;;;;;;;13.90;12.33;;;;;;;15.40;69.60;101990.31;5051032;28;20185;-82
2021/06/27 01:10:04;;;;;;;10.30;8.20;;;;;;;15.40;69.52;101995.47;5055109;28;20629;-79
2021/06/27 01:12:30;;;;;;;11.23;9.70;;;;;;;15.40;69.52;101992.00;5053244;28;20315;-81
2021/06/27 01:14:55;;;;;;;14.43;12.90;;;;;;;15.35;70.19;101988.47;5052684;28;20288;-80
2021/06/27 01:17:21;;;;;;;13.53;11.90;;;;;;;15.30;70.14;101995.22;5054209;28;20569;-82
2021/06/27 01:19:46;;;;;;;15.03;13.37;;;;;;;15.26;70.20;101999.47;5039732;23;20237;-81
2021/06/27 01:22:12;;;;;;;22.17;17.80;;;;;;;15.12;70.91;102003.50;4991467;28;20735;-80
2021/06/27 01:24:37;;;;;;;11.33;10.20;;;;;;;15.14;70.67;101996.63;4990981;28;20180;-81
2021/06/27 01:27:02;;;;;;;17.10;15.30;;;;;;;15.14;70.47;101999.22;4973716;28;20188;-81
2021/06/27 01:29:31;;;;;;;11.77;10.43;;;;;;;15.17;69.81;102001.00;4991227;28;20786;-80
2021/06/27 01:31:57;;;;;;;14.70;13.20;;;;;;;15.14;70.31;101995.78;4955340;28;20828;-81
2021/06/27 01:34:23;;;;;;;12.63;11.30;;;;;;;15.11;69.85;102001.72;4979754;28;20189;-81
2021/06/27 01:36:52;;;;;;;7.93;7.10;;;;;;;15.12;69.79;101997.44;4992750;28;20285;-81
2021/06/27 01:39:17;;;;;;;11.00;9.90;;;;;;;15.08;69.97;102006.84;5011247;28;20203;-80
2021/06/27 01:41:47;;;;;;;14.77;13.03;;;;;;;15.01;70.54;102002.38;4992283;28;20230;-80
2021/06/27 01:44:13;;;;;;;18.40;14.43;;;;;;;15.02;70.51;102001.59;4994196;28;20234;-80
2021/06/27 01:46:40;;;;;;;12.40;10.67;;;;;;;15.02;70.65;102000.69;4994622;28;20176;-81
2021/06/27 01:49:06;;;;;;;14.23;12.73;;;;;;;15.00;70.32;101998.06;4993239;28;20440;-82
2021/06/27 01:51:33;;;;;;;10.97;8.37;;;;;;;14.99;70.84;101998.94;4990969;28;20179;-81
2021/06/27 01:53:59;;;;;;;10.90;9.70;;;;;;;14.96;70.55;101995.44;4953022;28;20223;-81
2021/06/27 01:56:24;;;;;;;12.13;9.33;;;;;;;14.95;71.19;101993.66;4992332;28;20306;-81
2021/06/27 01:58:52;;;;;;;12.73;9.67;;;;;;;14.92;70.29;101991.88;4974831;28;20187;-81
2021/06/27 02:01:23;;;;;;;10.77;9.67;;;;;;;14.93;70.66;101991.06;4992415;28;20179;-82
2021/06/27 02:08:58;;;;;;;10.56;9.20;;;;;;;14.79;71.21;101986.47;3512908;39;3307271;-81
2021/06/27 02:11:58;;;;;;;13.00;10.93;;;;;;;14.83;70.97;101980.53;3619844;39;20590;-81
2021/06/27 02:14:26;;;;;;;14.43;11.70;;;;;;;14.83;70.73;101972.78;3618923;39;20243;-84
2021/06/27 02:16:54;;;;;;;12.77;10.80;;;;;;;14.84;71.31;101975.41;3619121;39;20244;-82
2021/06/27 02:19:19;;;;;;;12.80;11.50;;;;;;;14.84;71.31;101977.09;3619281;39;20220;-85
2021/06/27 02:21:45;;;;;;;13.77;11.30;;;;;;;14.84;71.38;101980.56;3619549;39;20285;-84
2021/06/27 02:24:10;;;;;;;16.47;14.77;;;;;;;14.80;71.24;101975.31;3619227;39;20220;-83
2021/06/27 02:26:36;;;;;;;15.57;13.90;;;;;;;14.67;72.18;101978.47;3619409;39;20226;-85
2021/06/27 02:29:04;;;;;;;14.93;11.57;;;;;;;14.67;71.74;101976.75;3619626;39;20755;-84
2021/06/27 02:31:31;;;;;;;15.33;13.73;;;;;;;14.77;70.92;101973.53;3619205;39;20220;-84
2021/06/27 02:33:58;;;;;;;12.53;10.93;;;;;;;14.75;70.80;101964.91;3619508;39;20223;-83
2021/06/27 02:36:23;;;;;;;11.97;10.77;;;;;;;14.70;70.89;101968.22;3619332;39;20228;-83
2021/06/27 02:38:49;;;;;;;9.17;8.27;;;;;;;14.69;71.56;101961.34;3619173;39;20760;-81
2021/06/27 02:41:16;;;;;;;10.63;9.53;;;;;;;14.70;71.08;101961.38;3619010;39;20236;-83
2021/06/27 02:43:42;;;;;;;12.27;10.97;;;;;;;14.64;70.67;101971.53;3619434;39;20794;-85
2021/06/27 02:46:08;;;;;;;10.73;9.63;;;;;;;14.66;71.08;101966.41;3619224;39;20257;-84
2021/06/27 02:48:33;;;;;;;11.43;10.23;;;;;;;14.61;70.72;101965.44;3619019;39;20310;-84
2021/06/27 02:50:59;;;;;;;12.87;10.43;;;;;;;14.63;71.10;101968.91;3618646;39;20285;-83
2021/06/27 02:53:25;;;;;;;16.57;13.93;;;;;;;14.65;71.13;101969.84;3614954;39;20252;-83
2021/06/27 02:56:06;;;;;;;21.87;16.93;;;;;;;14.64;71.14;101970.69;3615903;39;20271;-84
2021/06/27 02:58:33;;;;;;;24.93;20.00;;;;;;;14.69;71.17;101969.91;3617306;39;20245;-83
2021/06/27 03:00:58;;;;;;;17.13;12.90;;;;;;;14.63;70.76;101962.06;3608933;39;20248;-84
2021/06/27 03:03:24;;;;;;;14.17;11.23;;;;;;;14.62;71.10;101972.34;3609574;39;20709;-84
2021/06/27 03:05:49;;;;;;;14.03;11.77;;;;;;;14.60;71.29;101969.72;3613298;39;20212;-84
2021/06/27 03:08:18;;;;;;;14.27;11.93;;;;;;;14.56;71.29;101975.69;3619301;39;20822;-85
2021/06/27 03:10:43;;;;;;;15.57;12.40;;;;;;;14.54;71.50;101979.06;3618932;39;20261;-83
2021/06/27 03:13:09;;;;;;;12.13;10.83;;;;;;;14.54;71.34;101968.75;3619142;39;20228;-84
2021/06/27 03:15:34;;;;;;;14.00;12.10;;;;;;;14.65;70.70;101973.25;3617309;39;20224;-82
2021/06/27 03:18:00;;;;;;;15.90;14.20;;;;;;;14.70;71.44;101975.97;3613505;39;20231;-80
2021/06/27 03:20:25;;;;;;;14.53;12.27;;;;;;;14.63;72.30;101971.50;3612923;39;20254;-81
2021/06/27 03:22:50;;;;;;;11.03;9.43;;;;;;;14.68;72.14;101980.22;3606639;39;20236;-82
2021/06/27 03:25:16;;;;;;;10.40;9.30;;;;;;;14.74;71.98;101972.59;3605433;40;20235;-81
2021/06/27 03:27:41;;;;;;;9.57;8.60;;;;;;;14.81;71.05;101972.75;3606548;40;20710;-83
2021/06/27 03:30:07;;;;;;;8.47;7.63;;;;;;;14.92;71.17;101972.97;3610821;40;20652;-83
2021/06/27 03:32:34;;;;;;;10.60;8.97;;;;;;;15.06;71.23;101966.38;3612352;39;20273;-84
2021/06/27 03:34:59;;;;;;;7.83;7.00;;;;;;;15.13;70.68;101961.38;3612502;39;20212;-84
2021/06/27 03:37:24;;;;;;;11.67;10.47;;;;;;;15.25;70.95;101956.44;3612593;39;20235;-82
2021/06/27 03:39:50;;;;;;;15.70;14.10;;;;;;;15.29;71.60;101953.03;3612425;39;20243;-86
2021/06/27 03:42:16;;;;;;;9.23;8.33;;;;;;;15.38;70.53;101954.97;3612786;39;20216;-85
2021/06/27 03:44:41;;;;;;;12.57;11.23;;;;;;;15.45;70.49;101956.81;3612371;39;20257;-83
2021/06/27 03:47:14;;;;;;;16.03;14.33;;;;;;;15.53;70.96;101960.41;3611131;40;20220;-83
2021/06/27 03:49:39;;;;;;;11.17;9.83;;;;;;;15.60;71.53;101957.06;3611256;39;20757;-82
2021/06/27 03:52:05;;;;;;;23.40;20.23;;;;;;;15.68;72.25;101960.66;3611358;39;20244;-84
2021/06/27 03:54:32;;;;;;;18.03;16.17;;;;;;;15.89;70.76;101963.59;3611284;39;20233;-83
2021/06/27 03:56:57;;;;;;;24.30;21.70;;;;;;;15.74;73.36;101961.63;3611235;39;20237;-83
2021/06/27 03:59:23;;;;;;;16.40;14.40;;;;;;;15.80;72.72;101960.88;3610806;39;20243;-83
2021/06/27 04:01:48;;;;;;;18.80;16.67;;;;;;;15.98;71.87;101962.00;3610561;39;20235;-83
2021/06/27 04:04:13;;;;;;;16.33;14.63;;;;;;;15.94;72.47;101961.94;3611433;39;20248;-81
2021/06/27 04:06:39;;;;;;;17.27;15.40;;;;;;;16.01;71.46;101967.22;3611916;39;20229;-84
2021/06/27 04:09:04;;;;;;;16.97;15.27;;;;;;;16.10;71.21;101959.63;3611493;39;20272;-84
2021/06/27 04:11:30;;;;;;;21.00;18.73;;;;;;;16.04;72.71;101966.41;3610331;39;20320;-81
2021/06/27 04:13:55;;;;;;;25.37;21.23;;;;;;;16.07;71.85;101962.16;3610235;39;20234;-81
2021/06/27 04:16:20;;;;;;;22.60;18.80;;;;;;;16.09;72.07;101965.63;3610474;39;20705;-85
2021/06/27 04:18:46;;;;;;;21.80;19.13;;;;;;;16.00;72.60;101964.63;3611920;39;20220;-85
2021/06/27 04:21:11;;;;;;;26.70;22.27;;;;;;;16.05;72.92;101960.38;3610887;39;20232;-81
2021/06/27 04:23:41;;;;;;;22.63;19.87;;;;;;;16.11;72.91;101963.09;3610604;39;20236;-86
2021/06/27 04:26:06;;;;;;;16.80;14.77;;;;;;;16.21;72.02;101960.63;3611933;39;20208;-83
2021/06/27 04:28:32;;;;;;;17.33;15.03;;;;;;;16.33;71.43;101958.22;3610182;39;20244;-84
2021/06/27 04:30:57;;;;;;;23.50;20.60;;;;;;;16.41;71.92;101960.94;3602942;39;20349;-83
2021/06/27 04:33:23;;;;;;;20.90;15.93;;;;;;;16.52;71.07;101960.25;3611100;39;20216;-84
2021/06/27 04:35:48;;;;;;;18.57;16.50;;;;;;;16.63;71.13;101961.25;3608675;39;20248;-84
2021/06/27 04:38:17;;;;;;;19.33;17.30;;;;;;;16.70;70.88;101957.00;3611442;39;20252;-85
2021/06/27 04:40:43;;;;;;;15.97;14.37;;;;;;;16.77;70.80;101957.09;3612085;39;20720;-85
2021/06/27 04:43:09;;;;;;;17.07;15.27;;;;;;;16.87;70.28;101958.09;3611783;39;20228;-85
2021/06/27 04:45:37;;;;;;;20.67;17.47;;;;;;;16.99;69.90;101955.66;3611817;39;20220;-84
2021/06/27 04:48:05;;;;;;;21.33;18.97;;;;;;;16.98;69.70;101953.91;3611430;39;20749;-85
2021/06/27 04:50:30;;;;;;;22.70;20.33;;;;;;;17.01;69.19;101953.94;3611715;39;20256;-84
2021/06/27 04:52:56;;;;;;;18.63;16.40;;;;;;;17.15;68.54;101954.97;3610510;39;20240;-82
2021/06/27 04:55:22;;;;;;;22.10;17.23;;;;;;;17.18;68.22;101955.84;3609766;39;20228;-80
2021/06/27 04:57:50;;;;;;;20.10;15.37;;;;;;;17.29;67.78;101956.84;3609442;39;20244;-80
2021/06/27 05:00:24;;;;;;;23.33;18.53;;;;;;;17.32;68.29;101951.69;3609437;39;20232;-81
2021/06/27 05:02:52;;;;;;;17.13;14.43;;;;;;;17.51;67.55;101957.94;3609402;40;20677;-83
2021/06/27 05:05:21;;;;;;;24.30;19.93;;;;;;;17.39;69.40;101955.19;3609901;40;20244;-83
2021/06/27 05:07:46;;;;;;;18.83;16.40;;;;;;;17.44;68.60;101957.03;3609460;39;20240;-83
2021/06/27 05:10:12;;;;;;;15.70;13.90;;;;;;;17.57;67.90;101953.69;3608965;39;20254;-81
2021/06/27 05:12:37;;;;;;;17.37;15.20;;;;;;;17.63;67.98;101951.16;3609308;39;20232;-83
2021/06/27 05:15:05;;;;;;;24.20;19.30;;;;;;;17.65;68.01;101948.56;3609377;39;20209;-83
2021/06/27 05:17:30;;;;;;;19.92;17.15;;;;;;;17.73;67.48;101949.50;3609684;39;20669;-84
2021/06/27 05:19:56;;;;;;;18.40;16.23;;;;;;;17.86;67.17;101948.72;3608606;39;20243;-82
2021/06/27 05:22:21;;;;;;;20.97;16.00;;;;;;;17.93;67.40;101950.53;3609891;39;20224;-82
2021/06/27 05:24:47;;;;;;;19.97;16.30;;;;;;;18.05;66.46;101948.88;3609325;40;20208;-82
2021/06/27 05:27:12;;;;;;;21.80;17.47;;;;;;;18.15;65.73;101942.03;3611113;39;20236;-84
2021/06/27 05:29:37;;;;;;;20.50;18.43;;;;;;;18.17;65.92;101946.38;3610515;40;20220;-83
2021/06/27 05:32:03;;;;;;;23.83;17.40;;;;;;;18.24;66.15;101952.47;3609824;40;20228;-85
2021/06/27 05:34:30;;;;;;;16.43;14.83;;;;;;;18.40;65.54;101962.97;3610917;39;20877;-84
2021/06/27 05:36:56;;;;;;;21.17;19.07;;;;;;;18.67;63.93;101954.44;3611050;39;20216;-84
2021/06/27 05:39:21;;;;;;;21.33;19.13;;;;;;;18.58;64.66;101960.47;3611109;39;20240;-82
2021/06/27 05:41:46;;;;;;;18.10;16.30;;;;;;;18.60;64.24;101966.53;3611326;39;20224;-83
2021/06/27 05:44:15;;;;;;;19.27;17.20;;;;;;;18.65;64.17;101957.03;3610286;39;20594;-84
2021/06/27 05:46:40;;;;;;;18.83;16.87;;;;;;;18.69;63.85;101953.59;3609823;39;20232;-84
2021/06/27 05:49:08;;;;;;;21.40;18.30;;;;;;;18.67;64.49;101951.84;3609251;39;20247;-86
2021/06/27 05:51:41;;;;;;;18.58;15.43;;;;;;;18.86;63.64;101951.06;3609539;39;20230;-83
2021/06/27 05:54:11;;;;;;;19.83;17.83;;;;;;;18.85;62.61;101951.94;3609969;39;20312;-83
2021/06/27 05:56:40;;;;;;;15.23;13.67;;;;;;;19.00;62.96;101950.25;3609930;39;20236;-83
2021/06/27 05:59:07;;;;;;;20.30;18.20;;;;;;;18.98;62.10;101945.91;3609482;39;20236;-84
2021/06/27 06:01:33;;;;;;;17.17;15.40;;;;;;;19.13;62.23;101948.53;3608291;40;20224;-83
2021/06/27 06:03:58;;;;;;;22.07;17.33;;;;;;;19.70;61.92;101946.91;3607950;39;20779;-81
2021/06/27 06:06:24;;;;;;;23.73;18.87;;;;;;;19.53;63.54;101948.63;3608155;39;20221;-82
2021/06/27 06:08:49;;;;;;;22.53;19.27;;;;;;;19.19;64.59;101951.16;3609399;39;20309;-84
2021/06/27 06:11:16;;;;;;;21.80;19.50;;;;;;;19.18;65.41;101949.41;3609055;39;20248;-83
2021/06/27 06:13:42;;;;;;;15.20;13.00;;;;;;;19.46;64.61;101941.72;3610090;39;20238;-84
2021/06/27 06:16:08;;;;;;;23.80;20.20;;;;;;;19.56;64.13;101945.16;3609567;39;20224;-82
2021/06/27 06:18:34;;;;;;;15.60;13.97;;;;;;;19.74;63.39;101951.25;3610011;40;20224;-83
2021/06/27 06:21:00;;;;;;;20.83;18.20;;;;;;;19.53;64.62;101952.97;3610212;39;20258;-83
2021/06/27 06:23:26;;;;;;;18.70;16.70;;;;;;;19.57;64.36;101952.97;3609934;40;20590;-83
2021/06/27 06:25:52;;;;;;;21.40;18.87;;;;;;;19.65;63.55;101948.66;3610010;39;20738;-85
2021/06/27 06:28:17;;;;;;;22.30;18.70;;;;;;;19.85;62.04;101951.25;3610646;40;20209;-83
2021/06/27 06:30:43;;;;;;;28.43;22.47;;;;;;;19.87;62.79;101955.59;3610719;39;20242;-83
2021/06/27 06:33:10;;;;;;;23.33;18.00;;;;;;;20.04;61.64;101952.97;3610931;39;20301;-83
2021/06/27 06:35:46;;;;;;;19.23;16.75;;;;;;;20.12;61.81;101944.31;3610285;39;20232;-84
2021/06/27 06:38:12;;;;;;;21.60;18.40;;;;;;;20.36;60.16;101949.44;3604872;39;20220;-82
2021/06/27 06:40:38;;;;;;;28.83;21.70;;;;;;;20.34;60.65;101950.31;3595718;40;20538;-82
2021/06/27 06:43:04;;;;;;;23.00;18.60;;;;;;;20.29;59.98;101950.34;3596638;40;20227;-82
2021/06/27 06:45:30;;;;;;;21.77;17.07;;;;;;;20.49;59.52;101952.91;3604172;40;20217;-81
2021/06/27 06:47:56;;;;;;;20.60;17.63;;;;;;;20.41;59.40;101950.28;3604471;40;20267;-82
2021/06/27 06:50:22;;;;;;;26.77;20.47;;;;;;;20.21;59.33;101946.88;3596533;40;20257;-82
2021/06/27 06:52:48;;;;;;;17.97;15.90;;;;;;;20.63;58.72;101948.50;3595816;40;20229;-82
2021/06/27 06:55:13;;;;;;;16.27;14.57;;;;;;;20.90;58.16;101944.06;3596428;40;20244;-81
2021/06/27 06:57:38;;;;;;;19.23;17.23;;;;;;;20.67;56.95;101942.38;3597785;40;20599;-82
2021/06/27 07:00:06;;;;;;;15.83;14.13;;;;;;;21.06;57.22;101948.28;3600137;40;20237;-83
2021/06/27 07:02:32;;;;;;;14.93;13.33;;;;;;;21.47;56.67;101941.06;3605358;40;20223;-81
2021/06/27 07:04:57;;;;;;;14.50;13.00;;;;;;;22.00;55.96;101940.66;3607167;39;20236;-83
2021/06/27 07:07:22;;;;;;;17.97;15.80;;;;;;;21.98;54.15;101940.66;3607152;39;20242;-81
2021/06/27 07:09:48;;;;;;;16.20;14.57;;;;;;;22.42;52.69;101934.97;3607822;39;20255;-82
2021/06/27 07:12:13;;;;;;;17.88;15.77;;;;;;;22.41;53.60;101932.41;3608816;40;20239;-83
2021/06/27 07:14:38;;;;;;;15.00;13.47;;;;;;;22.92;52.82;101931.78;3606630;39;20741;-81
2021/06/27 07:17:04;;;;;;;16.40;14.77;;;;;;;23.20;50.74;101928.75;3606879;39;20618;-84
2021/06/27 07:19:29;;;;;;;16.17;13.20;;;;;;;23.47;51.63;101925.72;3605216;39;20233;-82
2021/06/27 07:21:55;;;;;;;12.55;11.25;;;;;;;24.20;49.17;101920.09;3597645;40;20236;-82
2021/06/27 07:24:20;;;;;;;15.27;13.73;;;;;;;23.84;48.86;101919.00;3597084;40;20653;-81
2021/06/27 07:26:47;;;;;;;15.45;13.85;;;;;;;23.91;49.16;101914.53;3597722;40;20229;-82
2021/06/27 07:29:12;;;;;;;14.73;13.23;;;;;;;24.07;48.25;101913.38;3598352;40;20302;-82
2021/06/27 07:31:37;;;;;;;15.15;13.43;;;;;;;23.74;49.75;101909.56;3589125;39;20248;-82
2021/06/27 07:34:03;;;;;;;13.20;11.82;;;;;;;24.67;47.93;101915.66;3613301;39;20281;-82
2021/06/27 07:36:28;;;;;;;13.43;12.02;;;;;;;24.76;46.17;101909.34;3609149;39;20212;-83
2021/06/27 07:38:54;;;;;;;13.48;12.00;;;;;;;24.73;46.49;101914.69;3608243;39;20217;-83
2021/06/27 07:41:19;;;;;;;13.52;11.63;;;;;;;24.58;46.15;101915.81;3616175;39;20563;-83
2021/06/27 07:43:50;;;;;;;11.45;10.27;;;;;;;25.22;44.73;101916.16;3618154;39;20224;-82
2021/06/27 07:46:17;;;;;;;11.13;10.02;;;;;;;25.14;45.60;101915.47;3617448;39;20707;-83
2021/06/27 07:48:43;;;;;;;11.40;10.30;;;;;;;24.70;46.45;101922.59;3613546;39;20212;-86
2021/06/27 07:51:09;;;;;;;11.65;10.45;;;;;;;25.09;45.33;101922.56;3608172;39;20232;-83
2021/06/27 07:53:34;;;;;;;10.93;9.93;;;;;;;25.13;44.67;101915.50;3598381;40;20237;-84
2021/06/27 07:55:59;;;;;;;9.38;8.48;;;;;;;25.80;43.33;101908.63;3603227;40;20228;-83
2021/06/27 07:58:25;;;;;;;10.15;9.15;;;;;;;25.69;42.32;101912.41;3605700;39;20973;-82
2021/06/27 08:00:50;;;;;;;10.23;9.23;;;;;;;25.47;43.61;101912.06;3606663;39;20262;-83
2021/06/27 08:03:15;;;;;;;11.23;9.05;;;;;;;25.54;43.32;101911.03;3609067;39;20289;-83
2021/06/27 08:05:40;;;;;;;10.35;9.35;;;;;;;25.81;42.67;101909.44;3611906;39;20563;-84
2021/06/27 08:08:06;;;;;;;8.90;8.10;;;;;;;26.41;42.24;101899.94;3608233;39;20229;-83
2021/06/27 08:10:32;;;;;;;9.45;8.55;;;;;;;26.85;41.66;101903.00;3599193;40;20240;-81
2021/06/27 08:12:57;;;;;;;9.70;8.70;;;;;;;26.38;41.18;101900.88;3598578;40;20233;-83
2021/06/27 08:15:22;;;;;;;9.88;8.93;;;;;;;26.27;42.08;101899.47;3599433;40;20229;-82
2021/06/27 08:17:49;;;;;;;8.52;7.28;;;;;;;26.62;40.36;101894.94;3599581;40;20229;-83
2021/06/27 08:20:16;;;;;;;6.40;5.80;;;;;;;27.29;40.47;101897.25;3599180;40;20252;-83
2021/06/27 08:22:41;;;;;;;7.32;6.63;;;;;;;27.32;39.53;101889.25;3600006;40;20228;-83
2021/06/27 08:25:08;;;;;;;6.57;5.97;;;;;;;27.90;38.83;101893.44;3600050;40;20648;-83
2021/06/27 08:27:33;;;;;;;7.05;6.45;;;;;;;27.50;39.03;101904.41;3606294;39;20239;-83
2021/06/27 08:29:59;;;;;;;7.13;6.53;;;;;;;27.81;37.55;101899.03;3608811;39;20606;-83
2021/06/27 08:32:24;;;;;;;7.57;6.88;;;;;;;27.67;38.14;101893.34;3606768;39;20237;-82
2021/06/27 08:34:49;;;;;;;7.47;6.78;;;;;;;27.77;36.55;101892.09;3600015;40;20240;-83
2021/06/27 08:37:14;;;;;;;6.82;6.13;;;;;;;28.09;38.32;101890.06;3600774;40;20277;-84
2021/06/27 08:39:40;;;;;;;7.03;6.32;;;;;;;28.58;36.46;101881.25;3602215;39;20248;-83
2021/06/27 08:42:06;;;;;;;8.43;7.22;;;;;;;28.99;36.93;101885.81;3616226;39;20232;-83
2021/06/27 08:44:34;;;;;;;9.35;8.48;;;;;;;28.43;37.63;101884.47;3610169;39;20244;-83
2021/06/27 08:47:02;;;;;;;9.70;8.80;;;;;;;28.32;38.97;101884.00;3609718;39;20281;-84
2021/06/27 08:49:27;;;;;;;10.88;9.88;;;;;;;28.59;37.06;101880.31;3609819;39;20240;-83
2021/06/27 08:51:55;;;;;;;12.98;11.77;;;;;;;28.39;37.18;101874.91;3610061;39;20313;-85
2021/06/27 08:54:20;;;;;;;9.95;8.25;;;;;;;29.33;35.84;101878.25;3603041;39;20227;-84
2021/06/27 08:56:45;;;;;;;9.95;8.95;;;;;;;29.83;35.51;101869.03;3600936;40;20221;-84
2021/06/27 08:59:10;;;;;;;12.57;11.23;;;;;;;29.10;37.41;101873.06;3610136;39;20235;-84
2021/06/27 09:01:36;;;;;;;11.95;10.85;;;;;;;29.22;36.54;101873.41;3609971;39;20503;-83
2021/06/27 09:04:01;;;;;;;11.40;10.20;;;;;;;29.28;36.71;101865.22;3609340;39;20224;-84
2021/06/27 09:06:40;;;;;;;11.18;10.05;;;;;;;29.76;35.61;101864.97;3609338;39;20228;-83
2021/06/27 09:09:16;;;;;;;13.70;12.30;;;;;;;29.44;36.02;101865.44;3600735;39;20255;-82
2021/06/27 09:12:00;;;;;;;12.38;11.18;;;;;;;29.32;37.95;101863.31;3606651;39;20229;-83
2021/06/27 09:14:40;;;;;;;13.05;11.77;;;;;;;29.36;37.96;101868.41;3605894;39;20240;-83
2021/06/27 09:17:08;;;;;;;9.55;8.45;;;;;;;29.68;37.15;101859.16;3606384;39;20228;-83
2021/06/27 09:20:08;;;;;;;10.95;8.38;;;;;;;30.79;35.57;101851.41;3609017;39;20251;-82
2021/06/27 09:22:40;;;;;;;9.90;9.00;;;;;;;31.37;35.08;101845.00;3597562;40;20231;-83
2021/06/27 09:25:18;;;;;;;9.13;8.00;;;;;;;31.63;34.64;101847.16;3605283;39;20268;-84
2021/06/27 09:27:45;;;;;;;9.63;8.73;;;;;;;31.68;33.87;101852.22;3601648;39;20550;-82
2021/06/27 09:30:13;;;;;;;9.25;8.35;;;;;;;31.33;35.53;101840.78;3604728;39;20254;-81
2021/06/27 09:32:50;;;;;;;10.35;9.45;;;;;;;32.02;33.48;101845.09;3589962;39;20279;-82
2021/06/27 09:35:36;;;;;;;10.98;9.73;;;;;;;32.01;34.25;101847.81;3599469;40;20256;-82
2021/06/27 09:38:20;;;;;;;10.77;9.77;;;;;;;31.45;34.08;101841.94;3599651;40;20674;-83
2021/06/27 09:40:46;;;;;;;10.07;9.18;;;;;;;30.65;34.50;101845.88;3608558;39;20243;-82
2021/06/27 09:43:12;;;;;;;10.77;9.88;;;;;;;31.16;33.63;101850.47;3602499;39;20228;-83
2021/06/27 09:45:54;;;;;;;13.77;10.75;;;;;;;30.67;35.49;101838.78;3602940;40;20240;-83
2021/06/27 09:48:19;;;;;;;9.30;8.50;;;;;;;31.48;34.23;101839.16;3598885;40;20575;-83
2021/06/27 09:50:45;;;;;;;9.73;8.73;;;;;;;32.26;33.69;101840.25;3597614;40;20232;-83
2021/06/27 09:53:37;;;;;;;10.82;9.75;;;;;;;31.52;34.02;101840.69;3599341;40;20243;-81
2021/06/27 09:56:06;;;;;;;11.40;10.30;;;;;;;30.67;34.53;101854.66;3599204;40;20232;-84
2021/06/27 09:58:31;;;;;;;10.52;9.60;;;;;;;30.43;35.97;101854.91;3599167;40;20233;-82
2021/06/27 10:00:57;;;;;;;8.90;7.50;;;;;;;31.18;34.92;101840.66;3603833;39;20735;-83
2021/06/27 10:03:24;;;;;;;11.32;10.20;;;;;;;31.08;34.11;101842.88;3599223;40;20596;-83
2021/06/27 10:05:49;;;;;;;13.15;11.95;;;;;;;31.15;33.40;101839.00;3599928;40;20232;-81
2021/06/27 10:08:28;;;;;;;11.93;10.82;;;;;;;31.84;33.48;101843.41;3603645;39;20216;-81
2021/06/27 10:11:29;;;;;;;12.48;11.30;;;;;;;32.19;32.45;101839.75;3602533;39;20240;-82
2021/06/27 10:13:54;;;;;;;12.63;11.32;;;;;;;32.12;33.42;101838.38;3596557;40;20240;-82
2021/06/27 10:16:29;;;;;;;10.32;9.32;;;;;;;31.56;34.20;101848.41;3606238;39;20619;-82
2021/06/27 10:18:55;;;;;;;11.73;10.52;;;;;;;30.43;34.04;101847.81;3609067;39;20231;-84
2021/06/27 10:21:21;;;;;;;12.60;11.40;;;;;;;29.48;36.12;101852.03;3608797;39;20259;-83
2021/06/27 10:23:47;;;;;;;10.45;9.45;;;;;;;30.03;36.20;101845.25;3608802;39;20936;-84
2021/06/27 10:26:15;;;;;;;11.40;10.40;;;;;;;30.19;37.00;101842.81;3601082;39;20213;-85
2021/06/27 10:28:41;;;;;;;11.55;10.48;;;;;;;30.55;34.84;101838.44;3609153;39;20973;-84
2021/06/27 10:31:06;;;;;;;11.60;9.93;;;;;;;30.63;34.92;101837.16;3609282;39;20252;-83
2021/06/27 10:33:32;;;;;;;11.75;10.65;;;;;;;30.84;33.91;101835.31;3602764;39;20232;-84
2021/06/27 10:36:02;;;;;;;12.57;11.38;;;;;;;31.01;33.29;101835.31;3611899;39;20262;-85
2021/06/27 10:38:32;;;;;;;11.13;10.13;;;;;;;31.38;33.21;101832.59;3617058;39;20231;-83
2021/06/27 10:40:59;;;;;;;9.27;8.05;;;;;;;31.84;32.65;101832.81;3610473;39;20251;-83
2021/06/27 10:43:25;;;;;;;9.70;8.90;;;;;;;32.07;32.67;101820.97;3605985;40;20603;-82
2021/06/27 10:45:51;;;;;;;15.95;13.77;;;;;;;31.07;33.33;101822.66;3598435;40;20240;-83
2021/06/27 10:48:31;;;;;;;13.88;12.63;;;;;;;31.43;33.68;101818.19;3597404;40;20228;-80
2021/06/27 10:50:58;;;;;;;12.70;11.43;;;;;;;31.87;34.87;101815.88;3605286;39;20244;-81
2021/06/27 10:53:23;;;;;;;12.63;11.40;;;;;;;31.71;33.08;101810.50;3601315;39;20220;-85
2021/06/27 10:55:52;;;;;;;12.68;11.40;;;;;;;32.04;32.60;101813.22;3609200;39;20609;-83
2021/06/27 10:58:36;;;;;;;12.73;11.52;;;;;;;31.96;32.03;101802.16;3608471;39;20222;-83
2021/06/27 11:01:09;;;;;;;11.63;10.38;;;;;;;31.83;31.96;101804.59;3608435;39;20244;-82
2021/06/27 11:03:36;;;;;;;11.88;10.75;;;;;;;31.99;32.56;101808.13;3608712;39;20260;-82
2021/06/27 11:06:04;;;;;;;10.77;9.88;;;;;;;31.45;33.05;101804.84;3608451;39;20231;-80
2021/06/27 11:08:38;;;;;;;11.25;10.20;;;;;;;31.18;33.61;101806.22;3607851;39;20236;-82
2021/06/27 11:11:05;;;;;;;11.30;10.25;;;;;;;31.66;32.57;101801.06;3607814;39;20251;-82
2021/06/27 11:13:31;;;;;;;10.13;9.23;;;;;;;32.06;31.97;101798.91;3609031;39;20230;-83
2021/06/27 11:15:56;;;;;;;12.07;10.95;;;;;;;31.87;32.52;101798.19;3605877;39;20240;-81
2021/06/27 11:18:35;;;;;;;12.10;10.90;;;;;;;32.92;30.90;101800.22;3606573;39;20236;-82
2021/06/27 11:21:07;;;;;;;11.02;10.07;;;;;;;33.01;30.40;101797.03;3608003;39;20239;-81